createdAt,value
2017-01-08T00:00:46.144Z,1024.112
2017-01-08T00:03:51.881Z,1024.071
2017-01-08T00:06:57.058Z,1024.069
2017-01-08T00:10:02.537Z,1024.076
2017-01-08T00:13:08.244Z,1024.052
2017-01-08T00:16:13.520Z,1023.983
2017-01-08T00:19:19.135Z,1023.975
2017-01-08T00:22:24.808Z,1023.987
2017-01-08T00:25:30.070Z,1023.957
2017-01-08T00:28:35.509Z,1023.928
2017-01-08T00:31:40.712Z,1023.976
2017-01-08T00:34:45.925Z,1024.038
2017-01-08T00:37:51.191Z,1024.057
2017-01-08T00:40:56.841Z,1024.132
2017-01-08T00:44:02.275Z,1024.155
2017-01-08T00:47:07.716Z,1024.184
2017-01-08T00:50:13.173Z,1024.183
2017-01-08T00:53:18.737Z,1024.213
2017-01-08T00:56:23.978Z,1024.214
2017-01-08T00:59:29.619Z,1024.207
2017-01-08T01:02:34.724Z,1024.235
2017-01-08T01:05:40.040Z,1024.332
2017-01-08T01:08:45.122Z,1024.368
2017-01-08T01:11:50.742Z,1024.433
2017-01-08T01:14:56.368Z,1024.467
2017-01-08T01:18:01.797Z,1024.409
2017-01-08T01:21:06.885Z,1024.396
2017-01-08T01:24:12.216Z,1024.367
2017-01-08T01:27:17.354Z,1024.348
2017-01-08T01:30:22.619Z,1024.414
2017-01-08T01:33:27.786Z,1024.416
2017-01-08T01:36:33.206Z,1024.433
2017-01-08T01:39:38.367Z,1024.455
2017-01-08T01:42:43.459Z,1024.482
2017-01-08T01:45:48.848Z,1024.481
2017-01-08T01:48:54.116Z,1024.512
2017-01-08T01:58:10.661Z,1024.526
2017-01-08T02:01:16.205Z,1024.479
2017-01-08T02:04:21.446Z,1024.574
2017-01-08T02:07:26.686Z,1024.673
2017-01-08T02:10:32.323Z,1024.744
2017-01-08T02:13:37.474Z,1024.795
2017-01-08T02:16:43.197Z,1024.806
2017-01-08T02:19:48.458Z,1024.795
2017-01-08T02:22:53.782Z,1024.820
2017-01-08T02:25:58.949Z,1024.794
2017-01-08T02:29:04.186Z,1024.765
2017-01-08T02:32:09.350Z,1024.813
2017-01-08T02:35:14.715Z,1024.813
2017-01-08T02:38:19.936Z,1024.842
2017-01-08T02:41:25.222Z,1024.825
2017-01-08T02:44:30.463Z,1024.843
2017-01-08T02:47:35.694Z,1024.829
2017-01-08T02:50:40.828Z,1024.824
2017-01-08T02:53:46.043Z,1024.841
2017-01-08T02:56:51.243Z,1024.850
2017-01-08T03:03:01.896Z,1024.933
2017-01-08T03:06:07.214Z,1024.925
2017-01-08T03:12:17.918Z,1024.986
2017-01-08T03:15:23.161Z,1025.093
2017-01-08T03:18:28.827Z,1025.162
2017-01-08T03:21:34.011Z,1025.199
2017-01-08T03:24:39.236Z,1025.290
2017-01-08T03:27:44.863Z,1025.385
2017-01-08T03:30:50.102Z,1025.423
2017-01-08T03:33:55.248Z,1025.407
2017-01-08T03:37:00.331Z,1025.444
2017-01-08T03:40:05.509Z,1025.530
2017-01-08T03:43:10.982Z,1025.527
2017-01-08T03:46:16.505Z,1025.547
2017-01-08T03:49:21.718Z,1025.648
2017-01-08T03:52:26.754Z,1025.702
2017-01-08T03:55:32.314Z,1025.769
2017-01-08T03:58:37.391Z,1025.769
2017-01-08T04:01:42.616Z,1025.776
2017-01-08T04:04:48.185Z,1025.879
2017-01-08T04:07:53.321Z,1026.027
2017-01-08T04:14:03.650Z,1026.037
2017-01-08T04:17:08.987Z,1026.079
2017-01-08T04:20:14.697Z,1026.115
2017-01-08T04:23:20.411Z,1026.129
2017-01-08T04:26:25.738Z,1026.193
2017-01-08T04:29:30.999Z,1026.297
2017-01-08T04:32:36.178Z,1026.312
2017-01-08T04:35:41.801Z,1026.370
2017-01-08T04:41:51.828Z,1026.464
2017-01-08T04:44:57.286Z,1026.471
2017-01-08T04:48:02.496Z,1026.546
2017-01-08T04:51:08.100Z,1026.586
2017-01-08T04:54:13.624Z,1026.654
2017-01-08T04:57:18.771Z,1026.704
2017-01-08T05:00:24.203Z,1026.730
2017-01-08T05:03:29.429Z,1026.717
2017-01-08T05:09:40.189Z,1026.928
2017-01-08T05:12:45.452Z,1027.015
2017-01-08T05:15:50.597Z,1027.140
2017-01-08T05:18:56.091Z,1027.262
2017-01-08T05:22:01.310Z,1027.252
2017-01-08T05:25:06.470Z,1027.324
2017-01-08T05:28:11.710Z,1027.441
2017-01-08T05:31:17.187Z,1027.508
2017-01-08T05:34:22.809Z,1027.503
2017-01-08T05:37:28.007Z,1027.563
2017-01-08T05:40:33.188Z,1027.603
2017-01-08T05:43:38.660Z,1027.663
2017-01-08T05:46:44.171Z,1027.667
2017-01-08T05:49:49.716Z,1027.671
2017-01-08T05:52:54.864Z,1027.715
2017-01-08T05:55:59.959Z,1027.750
2017-01-08T05:59:05.070Z,1027.850
2017-01-08T06:02:10.269Z,1027.884
2017-01-08T06:05:15.710Z,1027.906
2017-01-08T06:08:20.975Z,1027.954
2017-01-08T06:11:26.150Z,1028.000
2017-01-08T06:14:31.547Z,1028.051
2017-01-08T06:17:36.749Z,1027.996
2017-01-08T06:20:42.336Z,1028.093
2017-01-08T06:23:47.804Z,1028.157
2017-01-08T06:26:53.302Z,1028.088
2017-01-08T06:29:58.431Z,1028.180
2017-01-08T06:33:03.523Z,1028.211
2017-01-08T06:36:08.611Z,1028.235
2017-01-08T06:39:13.694Z,1028.223
2017-01-08T06:42:18.961Z,1028.214
2017-01-08T06:45:24.343Z,1028.268
2017-01-08T06:48:29.430Z,1028.283
2017-01-08T06:51:34.637Z,1028.307
2017-01-08T06:54:39.706Z,1028.392
2017-01-08T07:00:49.664Z,1028.610
2017-01-08T07:03:54.741Z,1028.650
2017-01-08T07:06:59.940Z,1028.656
2017-01-08T07:10:05.124Z,1028.767
2017-01-08T07:13:10.396Z,1028.842
2017-01-08T07:16:15.424Z,1028.900
2017-01-08T07:19:20.965Z,1028.914
2017-01-08T07:22:26.222Z,1028.916
2017-01-08T07:25:31.470Z,1028.948
2017-01-08T07:28:36.990Z,1028.920
2017-01-08T07:31:42.140Z,1028.911
2017-01-08T07:34:47.635Z,1028.980
2017-01-08T07:37:53.048Z,1029.005
2017-01-08T07:40:58.314Z,1029.035
2017-01-08T07:44:03.102Z,1029.071
2017-01-08T07:47:08.288Z,1029.079
2017-01-08T07:50:13.591Z,1029.080
2017-01-08T07:53:19.135Z,1029.100
2017-01-08T07:56:24.583Z,1029.161
2017-01-08T07:59:30.036Z,1029.132
2017-01-08T08:02:35.309Z,1029.130
2017-01-08T08:05:40.430Z,1029.292
2017-01-08T08:08:43.561Z,1029.300
2017-01-08T08:11:47.873Z,1029.271
2017-01-08T08:14:52.773Z,1029.310
2017-01-08T08:17:57.572Z,1029.331
2017-01-08T08:21:02.827Z,1029.342
2017-01-08T08:24:07.711Z,1029.418
2017-01-08T08:27:12.841Z,1029.447
2017-01-08T09:09:02.056Z,1029.904
2017-01-08T09:12:05.403Z,1029.858
2017-01-08T09:15:11.088Z,1029.918
2017-01-08T09:18:16.308Z,1029.965
2017-01-08T09:21:21.902Z,1029.946
2017-01-08T09:24:27.409Z,1029.989
2017-01-08T09:27:32.672Z,1030.007
2017-01-08T09:30:37.730Z,1029.938
2017-01-08T09:33:42.838Z,1029.934
2017-01-08T09:36:47.908Z,1030.008
2017-01-08T09:39:53.445Z,1029.999
2017-01-08T09:42:58.747Z,1029.985
2017-01-08T09:46:03.805Z,1030.148
2017-01-08T09:49:08.790Z,1030.211
2017-01-08T09:52:14.027Z,1030.183
2017-01-08T09:55:19.121Z,1030.260
2017-01-08T09:58:24.642Z,1030.338
2017-01-08T10:01:30.052Z,1030.410
2017-01-08T10:04:35.323Z,1030.471
2017-01-08T10:07:40.612Z,1030.585
2017-01-08T10:10:45.782Z,1030.620
2017-01-08T10:13:51.330Z,1030.642
2017-01-08T10:16:56.842Z,1030.614
2017-01-08T10:20:02.024Z,1030.652
2017-01-08T10:23:07.611Z,1030.749
2017-01-08T10:26:12.741Z,1030.752
2017-01-08T10:29:17.958Z,1030.773
2017-01-08T10:35:28.590Z,1030.791
2017-01-08T10:38:33.687Z,1030.739
2017-01-08T10:41:38.948Z,1030.697
2017-01-08T10:44:44.203Z,1030.682
2017-01-08T10:47:49.259Z,1030.584
2017-01-08T10:50:54.857Z,1030.557
2017-01-08T10:53:59.727Z,1030.595
2017-01-08T10:57:04.854Z,1030.571
2017-01-08T11:00:10.348Z,1030.588
2017-01-08T11:03:15.479Z,1030.633
2017-01-08T11:06:20.538Z,1030.644
2017-01-08T11:09:25.993Z,1030.606
2017-01-08T11:12:31.157Z,1030.621
2017-01-08T11:15:37.191Z,1030.614
2017-01-08T11:18:42.369Z,1030.583
2017-01-08T11:21:47.550Z,1030.637
2017-01-08T11:24:52.863Z,1030.670
2017-01-08T11:27:57.675Z,1030.679
2017-01-08T11:31:02.730Z,1030.705
2017-01-08T11:34:07.813Z,1030.755
2017-01-08T11:37:12.984Z,1030.766
2017-01-08T11:40:18.647Z,1030.708
2017-01-08T11:43:24.250Z,1030.685
2017-01-08T11:46:29.413Z,1030.705
2017-01-08T11:49:34.980Z,1030.669
2017-01-08T11:52:40.360Z,1030.693
2017-01-08T11:55:45.956Z,1030.654
2017-01-08T11:58:51.127Z,1030.650
2017-01-08T12:01:56.435Z,1030.695
2017-01-08T12:05:02.027Z,1030.606
2017-01-08T12:08:07.454Z,1030.552
2017-01-08T12:11:12.537Z,1030.492
2017-01-08T12:14:17.718Z,1030.484
2017-01-08T12:17:22.535Z,1030.538
2017-01-08T12:20:27.879Z,1030.503
2017-01-08T12:23:32.996Z,1030.468
2017-01-08T12:26:38.669Z,1030.533
2017-01-08T12:29:43.907Z,1030.578
2017-01-08T12:32:48.859Z,1030.637
2017-01-08T12:35:54.048Z,1030.687
2017-01-08T12:42:04.502Z,1030.627
2017-01-08T12:45:09.811Z,1030.634
2017-01-08T12:48:15.391Z,1030.642
2017-01-08T12:51:20.557Z,1030.654
2017-01-08T12:54:25.650Z,1030.653
2017-01-08T12:57:30.965Z,1030.703
2017-01-08T13:00:36.000Z,1030.691
2017-01-08T13:03:41.246Z,1030.713
2017-01-08T13:06:46.794Z,1030.768
2017-01-08T13:09:52.369Z,1030.755
2017-01-08T13:12:57.631Z,1030.677
2017-01-08T13:16:03.206Z,1030.636
2017-01-08T13:19:08.545Z,1030.603
2017-01-08T13:22:13.873Z,1030.622
2017-01-08T13:25:19.112Z,1030.618
2017-01-08T13:28:24.244Z,1030.574
2017-01-08T13:31:29.847Z,1030.637
2017-01-08T13:34:35.028Z,1030.599
2017-01-08T13:37:40.708Z,1030.664
2017-01-08T13:40:45.960Z,1030.670
2017-01-08T13:43:51.593Z,1030.648
2017-01-08T13:46:51.745Z,1030.610
2017-01-08T13:53:07.391Z,1030.591
2017-01-08T13:56:12.636Z,1030.603
2017-01-08T13:59:17.506Z,1030.633
2017-01-08T14:02:22.638Z,1030.620
2017-01-08T14:05:27.835Z,1030.589
2017-01-08T14:08:33.480Z,1030.611
2017-01-08T14:11:38.887Z,1030.621
2017-01-08T14:14:43.621Z,1030.631
2017-01-08T14:17:49.220Z,1030.615
2017-01-08T14:20:54.788Z,1030.566
2017-01-08T14:23:59.777Z,1030.555
2017-01-08T14:27:05.001Z,1030.594
2017-01-08T14:30:10.103Z,1030.584
2017-01-08T14:35:13.668Z,1030.386
2017-01-08T14:38:14.993Z,1030.420
2017-01-08T14:41:19.219Z,1030.528
2017-01-08T14:44:19.162Z,1030.584
2017-01-08T14:47:28.913Z,1030.640
2017-01-08T14:50:33.728Z,1030.675
2017-01-08T14:53:38.533Z,1030.757
2017-01-08T14:56:43.223Z,1030.859
2017-01-08T15:02:58.172Z,1030.806
2017-01-08T15:06:01.654Z,1030.865
2017-01-08T15:09:05.439Z,1031.007
2017-01-08T15:18:22.280Z,1030.778
2017-01-08T15:24:22.993Z,1030.819
2017-01-08T15:27:33.535Z,1030.881
2017-01-08T15:30:31.104Z,1030.908
2017-01-08T15:33:41.784Z,1030.978
2017-01-08T15:36:45.405Z,1030.954
2017-01-08T15:39:47.992Z,1030.960
2017-01-08T15:42:47.115Z,1030.910
2017-01-08T16:07:26.426Z,1031.145
2017-01-08T16:10:25.268Z,1031.221
2017-01-08T16:16:34.287Z,1031.244
2017-01-08T16:22:44.221Z,1031.180
2017-01-08T16:25:55.018Z,1031.341
2017-01-08T16:28:59.045Z,1031.345
2017-01-08T16:31:56.918Z,1031.197
2017-01-08T16:35:01.852Z,1031.176
2017-01-08T16:38:12.549Z,1031.237
2017-01-08T16:44:15.512Z,1031.271
2017-01-08T16:47:19.798Z,1031.333
2017-01-08T16:50:19.092Z,1031.395
2017-01-08T16:53:35.188Z,1031.438
2017-01-08T16:56:40.197Z,1031.363
2017-01-08T16:59:43.875Z,1031.360
2017-01-08T17:02:47.929Z,1031.404
2017-01-08T17:05:51.896Z,1031.388
2017-01-08T17:08:49.624Z,1031.340
2017-01-08T17:18:03.409Z,1031.253
2017-01-08T17:21:14.215Z,1031.221
2017-01-08T17:24:17.823Z,1031.123
2017-01-08T17:27:22.700Z,1031.071
2017-01-08T17:36:33.307Z,1030.989
2017-01-08T17:42:40.048Z,1030.911
2017-01-08T17:45:43.802Z,1030.950
2017-01-08T17:51:47.537Z,1030.940
2017-01-08T17:54:51.832Z,1030.968
2017-01-08T17:58:02.722Z,1030.936
2017-01-08T18:04:12.018Z,1030.936
2017-01-08T18:07:15.780Z,1030.957
2017-01-08T18:10:19.728Z,1030.926
2017-01-08T18:13:22.739Z,1030.818
2017-01-08T18:16:26.334Z,1030.759
2017-01-08T18:19:29.799Z,1030.680
2017-01-08T18:22:34.491Z,1030.707
2017-01-08T18:31:48.217Z,1030.656
2017-01-08T18:34:51.674Z,1030.617
2017-01-08T18:37:55.691Z,1030.639
2017-01-08T18:41:00.641Z,1030.678
2017-01-08T18:44:03.819Z,1030.636
2017-01-08T18:47:08.617Z,1030.575
2017-01-08T18:50:12.844Z,1030.559
2017-01-08T18:53:16.348Z,1030.546
2017-01-08T18:56:19.778Z,1030.581
2017-01-08T19:02:28.559Z,1030.704
2017-01-08T19:05:32.383Z,1030.734
2017-01-08T19:08:37.615Z,1030.781
2017-01-08T19:11:41.440Z,1030.731
2017-01-08T19:20:55.281Z,1030.746
2017-01-08T19:23:59.068Z,1030.732
2017-01-08T19:27:03.057Z,1030.770
2017-01-08T19:30:07.622Z,1030.726
2017-01-08T19:33:05.442Z,1030.645
2017-01-08T19:36:16.164Z,1030.575
2017-01-08T19:39:20.045Z,1030.596
2017-01-08T19:45:27.525Z,1030.578
2017-01-08T19:48:32.089Z,1030.629
2017-01-08T20:00:49.636Z,1030.540
2017-01-08T20:03:52.991Z,1030.479
2017-01-08T20:09:54.672Z,1030.500
2017-01-08T20:16:06.893Z,1030.585
2017-01-08T20:19:10.522Z,1030.588
2017-01-08T20:22:07.584Z,1030.603
2017-01-08T20:28:22.716Z,1030.607
2017-01-08T20:31:26.948Z,1030.598
2017-01-08T20:34:30.899Z,1030.608
2017-01-08T20:37:28.542Z,1030.591
2017-01-08T20:49:53.854Z,1030.557
2017-01-08T20:52:57.580Z,1030.533
2017-01-08T20:56:02.407Z,1030.498
2017-01-08T20:58:59.328Z,1030.571
2017-01-08T21:02:09.364Z,1030.588
2017-01-08T21:05:07.154Z,1030.564
2017-01-08T21:11:21.463Z,1030.638
2017-01-08T21:17:28.903Z,1030.718
2017-01-08T21:20:32.473Z,1030.720
2017-01-08T21:26:35.828Z,1030.752
2017-01-08T21:29:40.696Z,1030.822
2017-01-08T21:32:43.715Z,1030.882
2017-01-08T21:35:48.132Z,1030.905
2017-01-08T21:38:52.149Z,1030.920
2017-01-08T21:45:07.910Z,1030.825
2017-01-08T21:48:11.246Z,1030.868
2017-01-08T21:57:18.568Z,1030.803
2017-01-08T22:00:29.214Z,1030.851
2017-01-08T22:06:37.249Z,1030.849
2017-01-08T22:09:40.952Z,1030.751
2017-01-08T22:12:45.240Z,1030.737
2017-01-08T22:15:47.735Z,1030.730
2017-01-08T22:18:51.275Z,1030.712
2017-01-08T22:21:55.186Z,1030.666
2017-01-08T22:24:52.768Z,1030.608
2017-01-08T22:28:03.330Z,1030.519
2017-01-08T22:31:08.300Z,1030.458
2017-01-08T22:34:12.001Z,1030.480
2017-01-08T22:37:15.857Z,1030.459
2017-01-08T22:40:19.609Z,1030.437
2017-01-08T22:43:23.419Z,1030.376
2017-01-08T22:46:27.004Z,1030.395
2017-01-08T22:49:31.016Z,1030.377
2017-01-08T22:52:34.851Z,1030.348
2017-01-08T22:55:38.352Z,1030.346
2017-01-08T22:58:41.750Z,1030.369
2017-01-08T23:01:46.987Z,1030.279
2017-01-08T23:04:50.438Z,1030.276
2017-01-08T23:07:55.403Z,1030.258
2017-01-08T23:10:59.509Z,1030.191
2017-01-08T23:14:03.131Z,1030.126
2017-01-08T23:17:06.307Z,1030.110
2017-01-08T23:23:14.389Z,1029.940
2017-01-08T23:26:17.802Z,1029.912
2017-01-08T23:29:21.574Z,1029.926
2017-01-08T23:35:28.808Z,1029.798
2017-01-08T23:38:33.626Z,1029.881
2017-01-08T23:41:37.375Z,1029.922
2017-01-08T23:44:41.181Z,1029.964
2017-01-08T23:47:46.258Z,1029.975
2017-01-08T23:50:50.111Z,1029.956
2017-01-08T23:53:55.156Z,1029.956
2017-01-08T23:56:58.849Z,1029.933
2017-01-08T23:59:57.584Z,1029.941
